Airfield :
LOGIN :

Register | Disclaimer

   EN    FR    IT 

 










Legend :    VFR   Marginal VFR   IFR   Intensive IFR   Very Intensive IFR
Visi :
Ceiling :
>= 8 km
>= 3000ft
5 to 8 km
1000 to 3000 ft
1500m to 5 km
500 to 1000 ft
800 to 1500m
200 to 500 ft
< 800m
< 200 ft
Symbols :   Thunderstorms  Fog  Heavy snow  Heavy precipitations  Wind > 20 kt
SIGMETs :     Misc.  Thunderstorms  Icing  Turbulence  Mountain Waves  Volcanic Ashes






- Airport Elevation : 1649 ft
- IATA code : HHN


EDFH - Frankfurt-Hahn Rhineland-Palatinate

CURRENT METAR :
  • 300420Z 35003KT 2000 -RA BR BKN002 04/04 Q1020

EXPIRED METARs :
  • 300350Z 33004KT 290V010 3000 R03/1100D -RA BR BKN003 04/04 Q1020
  • 300320Z 34005KT 300V020 3000 BR BKN002 04/04 Q1020
  • 300220Z 35004KT 310V020 3000 BR BKN002 04/04 Q1020
  • 300150Z VRB02KT 3000 BR BKN003 04/04 Q1020
  • 300120Z 33003KT 290V360 4000 -DZ BKN002 04/04 Q1020

TAF TAF EDFH
Valid from the 30 at 00:00 until the 01 at 00:00 UTC


292300Z 3000/3024 01005KT 4000 -DZRA BR BKN005
TEMPO 3000/3024 0400 FG VV001



MET'MAP, your aeronautical weather chart ! - Copyright ORBIFLY December 2007 - Disclaimer

ORBIFLY MET'MAP TEAM :

Programming & Development : Alexandra Zaïnal
Original concept : Baudouin d'Aumeries
Technical & hardware support : Manuel Goepfert
Assistance : Marc-Olivier Méhu




SOURCES & CREDITS :

   NOAA